sensor_id;sensor_type;location;lat;lon;timestamp;temperature;humidity
15713;DHT22;7957;51.608;6.916;2022-08-05T00:02:03;22.80;1.00
15713;DHT22;7957;51.608;6.916;2022-08-05T00:04:33;22.70;1.00
15713;DHT22;7957;51.608;6.916;2022-08-05T00:07:00;22.70;1.00
15713;DHT22;7957;51.608;6.916;2022-08-05T00:09:27;22.70;1.00
15713;DHT22;7957;51.608;6.916;2022-08-05T00:11:54;22.70;1.00
15713;DHT22;7957;51.608;6.916;2022-08-05T00:14:23;22.70;1.00
15713;DHT22;7957;51.608;6.916;2022-08-05T00:16:49;22.60;1.00
15713;DHT22;7957;51.608;6.916;2022-08-05T00:19:16;22.60;1.00
15713;DHT22;7957;51.608;6.916;2022-08-05T00:21:43;22.60;1.00
15713;DHT22;7957;51.608;6.916;2022-08-05T00:24:10;22.60;1.00
15713;DHT22;7957;51.608;6.916;2022-08-05T00:26:37;22.50;1.00
15713;DHT22;7957;51.608;6.916;2022-08-05T00:29:04;22.50;1.00
15713;DHT22;7957;51.608;6.916;2022-08-05T00:31:33;22.50;1.00
15713;DHT22;7957;51.608;6.916;2022-08-05T00:34:00;22.50;1.00
15713;DHT22;7957;51.608;6.916;2022-08-05T00:36:27;22.50;1.00
15713;DHT22;7957;51.608;6.916;2022-08-05T00:38:54;22.40;1.00
15713;DHT22;7957;51.608;6.916;2022-08-05T00:41:28;22.40;1.00
15713;DHT22;7957;51.608;6.916;2022-08-05T00:43:55;22.40;1.00
15713;DHT22;7957;51.608;6.916;2022-08-05T00:46:21;22.40;1.00
15713;DHT22;7957;51.608;6.916;2022-08-05T00:48:50;22.30;1.00
15713;DHT22;7957;51.608;6.916;2022-08-05T00:51:18;22.30;1.00
15713;DHT22;7957;51.608;6.916;2022-08-05T00:53:45;22.30;1.00
15713;DHT22;7957;51.608;6.916;2022-08-05T00:56:14;22.30;1.00
15713;DHT22;7957;51.608;6.916;2022-08-05T00:58:41;22.30;1.00
15713;DHT22;7957;51.608;6.916;2022-08-05T01:01:09;22.20;1.00
15713;DHT22;7957;51.608;6.916;2022-08-05T01:03:36;22.20;1.00
15713;DHT22;7957;51.608;6.916;2022-08-05T01:06:05;22.20;1.00
15713;DHT22;7957;51.608;6.916;2022-08-05T01:08:33;22.20;1.00
15713;DHT22;7957;51.608;6.916;2022-08-05T01:11:03;22.20;1.00
15713;DHT22;7957;51.608;6.916;2022-08-05T01:13:37;22.20;1.00
15713;DHT22;7957;51.608;6.916;2022-08-05T01:16:10;22.10;1.00
15713;DHT22;7957;51.608;6.916;2022-08-05T01:18:42;22.10;1.00
15713;DHT22;7957;51.608;6.916;2022-08-05T01:21:27;22.10;1.00
15713;DHT22;7957;51.608;6.916;2022-08-05T01:24:09;22.10;1.00
15713;DHT22;7957;51.608;6.916;2022-08-05T01:26:49;22.10;1.00
15713;DHT22;7957;51.608;6.916;2022-08-05T01:29:28;22.00;1.00
15713;DHT22;7957;51.608;6.916;2022-08-05T01:31:59;22.00;1.00
15713;DHT22;7957;51.608;6.916;2022-08-05T01:34:33;22.00;1.00
15713;DHT22;7957;51.608;6.916;2022-08-05T01:37:05;22.00;1.00
15713;DHT22;7957;51.608;6.916;2022-08-05T01:39:34;22.00;1.00
15713;DHT22;7957;51.608;6.916;2022-08-05T01:42:02;21.90;1.00
15713;DHT22;7957;51.608;6.916;2022-08-05T01:44:33;21.90;1.00
15713;DHT22;7957;51.608;6.916;2022-08-05T01:47:01;21.90;1.00
15713;DHT22;7957;51.608;6.916;2022-08-05T01:49:29;21.90;1.00
15713;DHT22;7957;51.608;6.916;2022-08-05T01:51:58;21.90;1.00
15713;DHT22;7957;51.608;6.916;2022-08-05T01:54:30;21.80;1.00
15713;DHT22;7957;51.608;6.916;2022-08-05T01:56:58;21.80;12.10
15713;DHT22;7957;51.608;6.916;2022-08-05T01:59:26;21.80;13.70
15713;DHT22;7957;51.608;6.916;2022-08-05T02:01:57;21.80;25.40
15713;DHT22;7957;51.608;6.916;2022-08-05T02:04:27;21.80;18.20
15713;DHT22;7957;51.608;6.916;2022-08-05T02:06:55;21.70;43.10
15713;DHT22;7957;51.608;6.916;2022-08-05T02:09:23;21.70;42.40
15713;DHT22;7957;51.608;6.916;2022-08-05T02:11:56;21.70;37.20
15713;DHT22;7957;51.608;6.916;2022-08-05T02:14:27;21.70;32.20
15713;DHT22;7957;51.608;6.916;2022-08-05T02:17:02;21.70;40.60
15713;DHT22;7957;51.608;6.916;2022-08-05T02:19:34;21.70;58.70
15713;DHT22;7957;51.608;6.916;2022-08-05T02:22:15;21.70;54.60
15713;DHT22;7957;51.608;6.916;2022-08-05T02:24:46;21.70;55.10
15713;DHT22;7957;51.608;6.916;2022-08-05T02:27:17;21.70;77.70
15713;DHT22;7957;51.608;6.916;2022-08-05T02:29:47;21.70;54.50
15713;DHT22;7957;51.608;6.916;2022-08-05T02:32:18;21.60;44.30
15713;DHT22;7957;51.608;6.916;2022-08-05T02:34:45;21.60;46.20
15713;DHT22;7957;51.608;6.916;2022-08-05T02:37:13;21.60;52.80
15713;DHT22;7957;51.608;6.916;2022-08-05T02:39:42;21.60;57.60
15713;DHT22;7957;51.608;6.916;2022-08-05T02:42:09;21.60;67.90
15713;DHT22;7957;51.608;6.916;2022-08-05T02:44:38;21.60;92.20
15713;DHT22;7957;51.608;6.916;2022-08-05T02:47:08;21.60;53.30
15713;DHT22;7957;51.608;6.916;2022-08-05T02:49:39;21.60;61.60
15713;DHT22;7957;51.608;6.916;2022-08-05T02:52:10;21.60;73.30
15713;DHT22;7957;51.608;6.916;2022-08-05T02:54:40;21.50;68.30
15713;DHT22;7957;51.608;6.916;2022-08-05T02:57:12;21.60;66.90
15713;DHT22;7957;51.608;6.916;2022-08-05T02:59:43;21.50;53.40
15713;DHT22;7957;51.608;6.916;2022-08-05T03:02:12;21.50;83.60
15713;DHT22;7957;51.608;6.916;2022-08-05T03:04:44;21.50;92.30
15713;DHT22;7957;51.608;6.916;2022-08-05T03:07:11;21.50;94.20
15713;DHT22;7957;51.608;6.916;2022-08-05T03:09:41;21.50;99.90
15713;DHT22;7957;51.608;6.916;2022-08-05T03:12:09;21.50;99.90
15713;DHT22;7957;51.608;6.916;2022-08-05T03:14:36;21.50;99.90
15713;DHT22;7957;51.608;6.916;2022-08-05T03:17:03;21.50;99.90
15713;DHT22;7957;51.608;6.916;2022-08-05T03:19:29;21.50;99.90
15713;DHT22;7957;51.608;6.916;2022-08-05T03:21:58;21.50;99.90
15713;DHT22;7957;51.608;6.916;2022-08-05T03:24:25;21.40;99.90
15713;DHT22;7957;51.608;6.916;2022-08-05T03:26:53;21.40;99.90
15713;DHT22;7957;51.608;6.916;2022-08-05T03:29:20;21.40;99.90
15713;DHT22;7957;51.608;6.916;2022-08-05T03:31:47;21.40;99.90
15713;DHT22;7957;51.608;6.916;2022-08-05T03:34:15;21.40;99.90
15713;DHT22;7957;51.608;6.916;2022-08-05T03:36:42;21.30;99.90
15713;DHT22;7957;51.608;6.916;2022-08-05T03:39:10;21.30;99.90
15713;DHT22;7957;51.608;6.916;2022-08-05T03:41:37;21.30;99.90
15713;DHT22;7957;51.608;6.916;2022-08-05T03:44:04;21.30;99.90
15713;DHT22;7957;51.608;6.916;2022-08-05T03:46:31;21.30;99.90
15713;DHT22;7957;51.608;6.916;2022-08-05T03:48:57;21.30;99.90
15713;DHT22;7957;51.608;6.916;2022-08-05T03:51:29;21.30;99.90
15713;DHT22;7957;51.608;6.916;2022-08-05T03:54:02;21.30;99.90
15713;DHT22;7957;51.608;6.916;2022-08-05T03:56:36;21.20;99.90
15713;DHT22;7957;51.608;6.916;2022-08-05T03:59:08;21.30;99.90
15713;DHT22;7957;51.608;6.916;2022-08-05T04:01:43;21.30;99.90
15713;DHT22;7957;51.608;6.916;2022-08-05T04:04:11;21.30;99.90
15713;DHT22;7957;51.608;6.916;2022-08-05T04:06:39;21.30;99.90
15713;DHT22;7957;51.608;6.916;2022-08-05T04:09:07;21.20;99.90
15713;DHT22;7957;51.608;6.916;2022-08-05T04:11:36;21.20;99.90
15713;DHT22;7957;51.608;6.916;2022-08-05T04:14:03;21.20;99.90
15713;DHT22;7957;51.608;6.916;2022-08-05T04:16:32;21.20;99.90
15713;DHT22;7957;51.608;6.916;2022-08-05T04:18:59;21.20;99.90
15713;DHT22;7957;51.608;6.916;2022-08-05T04:21:26;21.20;99.90
15713;DHT22;7957;51.608;6.916;2022-08-05T04:23:54;21.10;99.90
15713;DHT22;7957;51.608;6.916;2022-08-05T04:26:20;21.20;99.90
15713;DHT22;7957;51.608;6.916;2022-08-05T04:28:49;21.10;99.90
15713;DHT22;7957;51.608;6.916;2022-08-05T04:31:16;21.10;99.90
15713;DHT22;7957;51.608;6.916;2022-08-05T04:33:43;21.10;99.90
15713;DHT22;7957;51.608;6.916;2022-08-05T04:36:10;21.10;99.90
15713;DHT22;7957;51.608;6.916;2022-08-05T04:38:37;21.10;99.90
15713;DHT22;7957;51.608;6.916;2022-08-05T04:41:04;21.10;99.90
15713;DHT22;7957;51.608;6.916;2022-08-05T04:43:30;21.10;99.90
15713;DHT22;7957;51.608;6.916;2022-08-05T04:45:59;21.10;99.90
15713;DHT22;7957;51.608;6.916;2022-08-05T04:48:27;21.10;99.90
15713;DHT22;7957;51.608;6.916;2022-08-05T04:50:54;21.10;99.90
15713;DHT22;7957;51.608;6.916;2022-08-05T04:53:21;21.00;99.90
15713;DHT22;7957;51.608;6.916;2022-08-05T04:55:49;21.00;99.90
15713;DHT22;7957;51.608;6.916;2022-08-05T04:58:17;21.10;99.90
15713;DHT22;7957;51.608;6.916;2022-08-05T05:00:44;21.10;99.90
15713;DHT22;7957;51.608;6.916;2022-08-05T05:03:12;21.00;99.90
15713;DHT22;7957;51.608;6.916;2022-08-05T05:05:39;21.00;99.90
15713;DHT22;7957;51.608;6.916;2022-08-05T05:08:07;21.00;99.90
15713;DHT22;7957;51.608;6.916;2022-08-05T05:10:37;20.90;99.90
15713;DHT22;7957;51.608;6.916;2022-08-05T05:13:06;21.00;99.90
15713;DHT22;7957;51.608;6.916;2022-08-05T05:15:33;21.00;99.90
15713;DHT22;7957;51.608;6.916;2022-08-05T05:18:00;21.00;99.90
15713;DHT22;7957;51.608;6.916;2022-08-05T05:20:28;21.00;99.90
15713;DHT22;7957;51.608;6.916;2022-08-05T05:22:56;20.90;99.90
15713;DHT22;7957;51.608;6.916;2022-08-05T05:25:23;20.90;99.90
15713;DHT22;7957;51.608;6.916;2022-08-05T05:27:50;21.00;99.90
15713;DHT22;7957;51.608;6.916;2022-08-05T05:30:18;21.00;99.90
15713;DHT22;7957;51.608;6.916;2022-08-05T05:32:45;21.00;99.90
15713;DHT22;7957;51.608;6.916;2022-08-05T05:35:12;21.00;99.90
15713;DHT22;7957;51.608;6.916;2022-08-05T05:37:50;21.00;99.90
15713;DHT22;7957;51.608;6.916;2022-08-05T05:40:18;21.00;99.90
15713;DHT22;7957;51.608;6.916;2022-08-05T05:42:47;20.90;99.90
15713;DHT22;7957;51.608;6.916;2022-08-05T05:45:14;20.90;99.90
15713;DHT22;7957;51.608;6.916;2022-08-05T05:47:42;20.90;99.90
15713;DHT22;7957;51.608;6.916;2022-08-05T05:50:11;20.90;99.90
15713;DHT22;7957;51.608;6.916;2022-08-05T05:52:38;20.90;99.90
15713;DHT22;7957;51.608;6.916;2022-08-05T05:55:09;20.90;99.90
15713;DHT22;7957;51.608;6.916;2022-08-05T05:57:37;20.90;99.90
15713;DHT22;7957;51.608;6.916;2022-08-05T06:00:10;20.90;99.90
15713;DHT22;7957;51.608;6.916;2022-08-05T06:02:37;20.90;99.90
15713;DHT22;7957;51.608;6.916;2022-08-05T06:05:05;20.90;99.90
15713;DHT22;7957;51.608;6.916;2022-08-05T06:07:32;20.90;99.90
15713;DHT22;7957;51.608;6.916;2022-08-05T06:09:59;20.80;99.90
15713;DHT22;7957;51.608;6.916;2022-08-05T06:12:28;20.80;99.90
15713;DHT22;7957;51.608;6.916;2022-08-05T06:14:55;20.80;99.90
15713;DHT22;7957;51.608;6.916;2022-08-05T06:17:21;20.70;99.90
15713;DHT22;7957;51.608;6.916;2022-08-05T06:19:48;20.80;99.90
15713;DHT22;7957;51.608;6.916;2022-08-05T06:22:22;20.70;99.90
15713;DHT22;7957;51.608;6.916;2022-08-05T06:24:50;20.70;99.90
15713;DHT22;7957;51.608;6.916;2022-08-05T06:27:17;20.70;99.90
15713;DHT22;7957;51.608;6.916;2022-08-05T06:29:46;20.70;99.90
15713;DHT22;7957;51.608;6.916;2022-08-05T06:32:13;20.70;99.90
15713;DHT22;7957;51.608;6.916;2022-08-05T06:34:40;20.60;99.90
15713;DHT22;7957;51.608;6.916;2022-08-05T06:37:07;20.70;99.90
15713;DHT22;7957;51.608;6.916;2022-08-05T06:39:34;20.60;99.90
15713;DHT22;7957;51.608;6.916;2022-08-05T06:42:04;20.60;99.90
15713;DHT22;7957;51.608;6.916;2022-08-05T06:44:31;20.60;99.90
15713;DHT22;7957;51.608;6.916;2022-08-05T06:46:59;20.60;99.90
15713;DHT22;7957;51.608;6.916;2022-08-05T06:49:26;20.60;99.90
15713;DHT22;7957;51.608;6.916;2022-08-05T06:51:53;20.60;99.90
15713;DHT22;7957;51.608;6.916;2022-08-05T06:54:21;20.60;99.90
15713;DHT22;7957;51.608;6.916;2022-08-05T06:56:48;20.50;99.90
15713;DHT22;7957;51.608;6.916;2022-08-05T06:59:15;20.50;99.90
15713;DHT22;7957;51.608;6.916;2022-08-05T07:01:41;20.50;99.90
15713;DHT22;7957;51.608;6.916;2022-08-05T07:04:10;20.50;99.90
15713;DHT22;7957;51.608;6.916;2022-08-05T07:06:37;20.50;99.90
15713;DHT22;7957;51.608;6.916;2022-08-05T07:09:04;20.50;99.90
15713;DHT22;7957;51.608;6.916;2022-08-05T07:11:31;20.50;99.90
15713;DHT22;7957;51.608;6.916;2022-08-05T07:13:58;20.40;99.90
15713;DHT22;7957;51.608;6.916;2022-08-05T07:16:43;20.50;99.90
15713;DHT22;7957;51.608;6.916;2022-08-05T07:19:18;20.50;99.90
15713;DHT22;7957;51.608;6.916;2022-08-05T07:21:46;20.50;99.90
15713;DHT22;7957;51.608;6.916;2022-08-05T07:24:13;20.40;99.90
15713;DHT22;7957;51.608;6.916;2022-08-05T07:26:40;20.40;99.90
15713;DHT22;7957;51.608;6.916;2022-08-05T07:29:07;20.40;99.90
15713;DHT22;7957;51.608;6.916;2022-08-05T07:31:34;20.40;99.90
15713;DHT22;7957;51.608;6.916;2022-08-05T07:34:01;20.40;99.90
15713;DHT22;7957;51.608;6.916;2022-08-05T07:36:29;20.40;99.90
15713;DHT22;7957;51.608;6.916;2022-08-05T07:38:58;20.40;99.90
15713;DHT22;7957;51.608;6.916;2022-08-05T07:41:26;20.40;99.90
15713;DHT22;7957;51.608;6.916;2022-08-05T07:43:53;20.40;99.90
15713;DHT22;7957;51.608;6.916;2022-08-05T07:46:20;20.40;99.90
15713;DHT22;7957;51.608;6.916;2022-08-05T07:48:47;20.40;99.90
15713;DHT22;7957;51.608;6.916;2022-08-05T07:51:14;20.30;99.90
15713;DHT22;7957;51.608;6.916;2022-08-05T07:53:42;20.30;99.90
15713;DHT22;7957;51.608;6.916;2022-08-05T07:56:09;20.30;99.90
15713;DHT22;7957;51.608;6.916;2022-08-05T07:58:36;20.30;99.90
15713;DHT22;7957;51.608;6.916;2022-08-05T08:01:03;20.30;99.90
15713;DHT22;7957;51.608;6.916;2022-08-05T08:03:30;20.30;99.90
15713;DHT22;7957;51.608;6.916;2022-08-05T08:05:57;20.30;99.90
15713;DHT22;7957;51.608;6.916;2022-08-05T08:08:24;20.30;99.90
15713;DHT22;7957;51.608;6.916;2022-08-05T08:10:53;20.30;99.90
15713;DHT22;7957;51.608;6.916;2022-08-05T08:13:21;20.30;99.90
15713;DHT22;7957;51.608;6.916;2022-08-05T08:15:47;20.20;99.90
15713;DHT22;7957;51.608;6.916;2022-08-05T08:18:14;20.30;99.90
15713;DHT22;7957;51.608;6.916;2022-08-05T08:20:42;20.30;99.90
15713;DHT22;7957;51.608;6.916;2022-08-05T08:23:09;20.30;99.90
15713;DHT22;7957;51.608;6.916;2022-08-05T08:25:36;20.20;99.90
15713;DHT22;7957;51.608;6.916;2022-08-05T08:28:04;20.20;99.90
15713;DHT22;7957;51.608;6.916;2022-08-05T08:30:31;20.30;99.90
15713;DHT22;7957;51.608;6.916;2022-08-05T08:32:58;20.20;99.90
15713;DHT22;7957;51.608;6.916;2022-08-05T08:35:25;20.20;99.90
15713;DHT22;7957;51.608;6.916;2022-08-05T08:37:52;20.20;99.90
15713;DHT22;7957;51.608;6.916;2022-08-05T08:40:19;20.20;99.90
15713;DHT22;7957;51.608;6.916;2022-08-05T08:42:49;20.20;99.90
15713;DHT22;7957;51.608;6.916;2022-08-05T08:45:20;20.20;99.90
15713;DHT22;7957;51.608;6.916;2022-08-05T08:47:49;20.20;99.90
15713;DHT22;7957;51.608;6.916;2022-08-05T08:50:18;20.20;99.90
15713;DHT22;7957;51.608;6.916;2022-08-05T08:52:50;20.10;99.90
15713;DHT22;7957;51.608;6.916;2022-08-05T08:55:19;20.20;99.90
15713;DHT22;7957;51.608;6.916;2022-08-05T08:57:46;20.20;99.90
15713;DHT22;7957;51.608;6.916;2022-08-05T09:00:14;20.20;99.90
15713;DHT22;7957;51.608;6.916;2022-08-05T09:02:43;20.20;99.90
15713;DHT22;7957;51.608;6.916;2022-08-05T09:05:11;20.20;99.90
15713;DHT22;7957;51.608;6.916;2022-08-05T09:07:39;20.20;99.90
15713;DHT22;7957;51.608;6.916;2022-08-05T09:10:07;20.20;99.90
15713;DHT22;7957;51.608;6.916;2022-08-05T09:12:34;20.30;99.90
15713;DHT22;7957;51.608;6.916;2022-08-05T09:15:01;20.30;99.90
15713;DHT22;7957;51.608;6.916;2022-08-05T09:17:29;20.30;99.90
15713;DHT22;7957;51.608;6.916;2022-08-05T09:19:58;20.30;99.90
15713;DHT22;7957;51.608;6.916;2022-08-05T09:22:25;20.30;99.90
15713;DHT22;7957;51.608;6.916;2022-08-05T09:24:58;20.30;99.90
15713;DHT22;7957;51.608;6.916;2022-08-05T09:27:31;20.30;99.90
15713;DHT22;7957;51.608;6.916;2022-08-05T09:29:59;20.40;99.90
15713;DHT22;7957;51.608;6.916;2022-08-05T09:32:36;20.40;99.90
15713;DHT22;7957;51.608;6.916;2022-08-05T09:35:11;20.40;99.90
15713;DHT22;7957;51.608;6.916;2022-08-05T09:37:48;20.50;99.90
15713;DHT22;7957;51.608;6.916;2022-08-05T09:40:29;20.50;99.90
15713;DHT22;7957;51.608;6.916;2022-08-05T09:42:57;20.60;99.90
15713;DHT22;7957;51.608;6.916;2022-08-05T09:45:35;20.60;94.90
15713;DHT22;7957;51.608;6.916;2022-08-05T09:48:17;20.60;83.80
15713;DHT22;7957;51.608;6.916;2022-08-05T09:50:50;20.60;67.10
15713;DHT22;7957;51.608;6.916;2022-08-05T09:53:17;20.70;50.20
15713;DHT22;7957;51.608;6.916;2022-08-05T09:55:44;20.70;43.70
15713;DHT22;7957;51.608;6.916;2022-08-05T09:58:12;20.70;32.50
15713;DHT22;7957;51.608;6.916;2022-08-05T10:00:50;20.80;8.80
15713;DHT22;7957;51.608;6.916;2022-08-05T10:03:18;20.90;1.00
15713;DHT22;7957;51.608;6.916;2022-08-05T10:05:45;20.90;1.00
15713;DHT22;7957;51.608;6.916;2022-08-05T10:08:23;21.00;1.00
15713;DHT22;7957;51.608;6.916;2022-08-05T10:10:50;21.10;1.00
15713;DHT22;7957;51.608;6.916;2022-08-05T10:13:27;21.20;1.00
15713;DHT22;7957;51.608;6.916;2022-08-05T10:15:54;21.20;1.00
15713;DHT22;7957;51.608;6.916;2022-08-05T10:18:23;21.30;1.00
15713;DHT22;7957;51.608;6.916;2022-08-05T10:20:53;21.40;1.00
15713;DHT22;7957;51.608;6.916;2022-08-05T10:23:23;21.50;1.00
15713;DHT22;7957;51.608;6.916;2022-08-05T10:25:51;21.60;1.00
15713;DHT22;7957;51.608;6.916;2022-08-05T10:28:20;21.60;1.00
15713;DHT22;7957;51.608;6.916;2022-08-05T10:30:47;21.70;1.00
15713;DHT22;7957;51.608;6.916;2022-08-05T10:33:16;21.80;99.90
15713;DHT22;7957;51.608;6.916;2022-08-05T10:35:44;21.90;99.90
15713;DHT22;7957;51.608;6.916;2022-08-05T10:38:12;22.00;99.90
15713;DHT22;7957;51.608;6.916;2022-08-05T10:40:45;22.10;99.90
15713;DHT22;7957;51.608;6.916;2022-08-05T10:43:19;22.20;99.90
15713;DHT22;7957;51.608;6.916;2022-08-05T10:45:57;22.30;99.90
15713;DHT22;7957;51.608;6.916;2022-08-05T10:48:31;22.40;99.90
15713;DHT22;7957;51.608;6.916;2022-08-05T10:51:01;22.50;99.90
15713;DHT22;7957;51.608;6.916;2022-08-05T10:53:42;22.60;99.90
15713;DHT22;7957;51.608;6.916;2022-08-05T10:56:13;22.70;95.00
15713;DHT22;7957;51.608;6.916;2022-08-05T10:58:49;22.90;1.60
15713;DHT22;7957;51.608;6.916;2022-08-05T11:01:16;22.90;1.00
15713;DHT22;7957;51.608;6.916;2022-08-05T11:04:07;23.00;1.00
15713;DHT22;7957;51.608;6.916;2022-08-05T11:06:42;23.10;1.00
15713;DHT22;7957;51.608;6.916;2022-08-05T11:09:24;23.10;1.00
15713;DHT22;7957;51.608;6.916;2022-08-05T11:11:53;23.20;1.00
15713;DHT22;7957;51.608;6.916;2022-08-05T11:14:24;23.20;1.00
15713;DHT22;7957;51.608;6.916;2022-08-05T11:17:29;23.20;1.00
15713;DHT22;7957;51.608;6.916;2022-08-05T11:19:57;23.30;1.00
15713;DHT22;7957;51.608;6.916;2022-08-05T11:22:41;23.30;1.00
15713;DHT22;7957;51.608;6.916;2022-08-05T11:25:31;23.40;1.00
15713;DHT22;7957;51.608;6.916;2022-08-05T11:34:05;23.70;1.00
15713;DHT22;7957;51.608;6.916;2022-08-05T11:36:46;23.90;1.00
15713;DHT22;7957;51.608;6.916;2022-08-05T11:39:15;24.20;1.00
15713;DHT22;7957;51.608;6.916;2022-08-05T11:41:50;24.60;1.00
15713;DHT22;7957;51.608;6.916;2022-08-05T11:44:19;25.10;99.90
15713;DHT22;7957;51.608;6.916;2022-08-05T11:46:48;25.50;99.90
15713;DHT22;7957;51.608;6.916;2022-08-05T11:49:18;25.90;99.90
15713;DHT22;7957;51.608;6.916;2022-08-05T11:51:47;26.20;99.90
15713;DHT22;7957;51.608;6.916;2022-08-05T11:54:19;26.50;62.80
15713;DHT22;7957;51.608;6.916;2022-08-05T11:56:48;26.80;10.20
15713;DHT22;7957;51.608;6.916;2022-08-05T11:59:17;27.10;1.00
15713;DHT22;7957;51.608;6.916;2022-08-05T12:02:00;27.40;1.00
15713;DHT22;7957;51.608;6.916;2022-08-05T12:04:39;27.80;1.00
15713;DHT22;7957;51.608;6.916;2022-08-05T12:07:08;28.30;1.00
15713;DHT22;7957;51.608;6.916;2022-08-05T12:09:36;28.50;1.00
15713;DHT22;7957;51.608;6.916;2022-08-05T12:12:04;28.50;1.00
15713;DHT22;7957;51.608;6.916;2022-08-05T12:14:36;28.30;1.00
15713;DHT22;7957;51.608;6.916;2022-08-05T12:17:07;28.10;1.00
15713;DHT22;7957;51.608;6.916;2022-08-05T12:19:41;27.90;1.00
15713;DHT22;7957;51.608;6.916;2022-08-05T12:22:08;27.60;1.00
15713;DHT22;7957;51.608;6.916;2022-08-05T12:24:39;27.40;1.00
15713;DHT22;7957;51.608;6.916;2022-08-05T12:27:07;27.10;1.00
15713;DHT22;7957;51.608;6.916;2022-08-05T12:29:34;26.90;1.00
15713;DHT22;7957;51.608;6.916;2022-08-05T12:32:03;26.70;1.00
15713;DHT22;7957;51.608;6.916;2022-08-05T12:34:31;26.50;1.00
15713;DHT22;7957;51.608;6.916;2022-08-05T12:37:02;26.40;1.00
15713;DHT22;7957;51.608;6.916;2022-08-05T12:39:36;26.40;1.00
15713;DHT22;7957;51.608;6.916;2022-08-05T12:42:08;26.60;1.00
15713;DHT22;7957;51.608;6.916;2022-08-05T12:44:35;27.00;1.00
15713;DHT22;7957;51.608;6.916;2022-08-05T12:47:04;27.30;1.00
15713;DHT22;7957;51.608;6.916;2022-08-05T12:49:45;27.50;1.00
15713;DHT22;7957;51.608;6.916;2022-08-05T12:52:16;27.70;1.00
15713;DHT22;7957;51.608;6.916;2022-08-05T12:54:44;28.00;1.00
15713;DHT22;7957;51.608;6.916;2022-08-05T12:57:13;28.00;1.00
15713;DHT22;7957;51.608;6.916;2022-08-05T12:59:45;28.00;1.00
15713;DHT22;7957;51.608;6.916;2022-08-05T13:02:16;27.90;1.00
15713;DHT22;7957;51.608;6.916;2022-08-05T13:04:44;27.90;1.00
15713;DHT22;7957;51.608;6.916;2022-08-05T13:07:14;27.80;1.00
15713;DHT22;7957;51.608;6.916;2022-08-05T13:09:51;27.70;1.00
15713;DHT22;7957;51.608;6.916;2022-08-05T13:12:20;27.60;1.00
15713;DHT22;7957;51.608;6.916;2022-08-05T13:14:48;27.40;1.00
15713;DHT22;7957;51.608;6.916;2022-08-05T13:17:17;27.30;1.00
15713;DHT22;7957;51.608;6.916;2022-08-05T13:20:02;27.10;1.00
15713;DHT22;7957;51.608;6.916;2022-08-05T13:22:31;26.90;1.00
15713;DHT22;7957;51.608;6.916;2022-08-05T13:25:01;26.70;1.00
15713;DHT22;7957;51.608;6.916;2022-08-05T13:27:30;26.50;1.00
15713;DHT22;7957;51.608;6.916;2022-08-05T13:29:58;26.30;1.00
15713;DHT22;7957;51.608;6.916;2022-08-05T13:32:26;26.20;1.00
15713;DHT22;7957;51.608;6.916;2022-08-05T13:34:54;26.00;1.00
15713;DHT22;7957;51.608;6.916;2022-08-05T13:37:21;25.90;1.00
15713;DHT22;7957;51.608;6.916;2022-08-05T13:39:49;25.80;1.00
15713;DHT22;7957;51.608;6.916;2022-08-05T13:42:20;25.80;1.00
15713;DHT22;7957;51.608;6.916;2022-08-05T13:44:50;25.70;1.00
15713;DHT22;7957;51.608;6.916;2022-08-05T13:47:17;25.60;1.00
15713;DHT22;7957;51.608;6.916;2022-08-05T13:49:44;25.60;1.00
15713;DHT22;7957;51.608;6.916;2022-08-05T13:52:11;25.50;1.00
15713;DHT22;7957;51.608;6.916;2022-08-05T13:54:38;25.50;1.00
15713;DHT22;7957;51.608;6.916;2022-08-05T13:57:06;25.50;1.00
15713;DHT22;7957;51.608;6.916;2022-08-05T13:59:35;25.40;1.00
15713;DHT22;7957;51.608;6.916;2022-08-05T14:02:04;25.50;1.00
15713;DHT22;7957;51.608;6.916;2022-08-05T14:04:35;25.50;1.00
15713;DHT22;7957;51.608;6.916;2022-08-05T14:07:25;25.60;1.00
15713;DHT22;7957;51.608;6.916;2022-08-05T14:09:52;25.70;1.00
15713;DHT22;7957;51.608;6.916;2022-08-05T14:12:19;25.80;1.00
15713;DHT22;7957;51.608;6.916;2022-08-05T14:14:47;26.00;1.00
15713;DHT22;7957;51.608;6.916;2022-08-05T14:17:15;26.10;1.00
15713;DHT22;7957;51.608;6.916;2022-08-05T14:19:42;26.10;1.00
15713;DHT22;7957;51.608;6.916;2022-08-05T14:22:09;26.30;1.00
15713;DHT22;7957;51.608;6.916;2022-08-05T14:24:37;26.40;1.00
15713;DHT22;7957;51.608;6.916;2022-08-05T14:27:04;26.40;1.00
15713;DHT22;7957;51.608;6.916;2022-08-05T14:29:32;26.40;1.00
15713;DHT22;7957;51.608;6.916;2022-08-05T14:32:00;26.50;1.00
15713;DHT22;7957;51.608;6.916;2022-08-05T14:34:27;26.40;1.00
15713;DHT22;7957;51.608;6.916;2022-08-05T14:36:53;26.50;1.00
15713;DHT22;7957;51.608;6.916;2022-08-05T14:39:20;26.50;1.00
15713;DHT22;7957;51.608;6.916;2022-08-05T14:41:47;26.40;1.00
15713;DHT22;7957;51.608;6.916;2022-08-05T14:44:14;26.40;1.00
15713;DHT22;7957;51.608;6.916;2022-08-05T14:46:41;26.40;1.00
15713;DHT22;7957;51.608;6.916;2022-08-05T14:49:09;26.40;1.00
15713;DHT22;7957;51.608;6.916;2022-08-05T14:51:37;26.40;1.00
15713;DHT22;7957;51.608;6.916;2022-08-05T14:54:04;26.40;1.00
15713;DHT22;7957;51.608;6.916;2022-08-05T14:56:32;26.40;1.00
15713;DHT22;7957;51.608;6.916;2022-08-05T14:58:59;26.40;1.00
15713;DHT22;7957;51.608;6.916;2022-08-05T15:01:26;26.50;1.00
15713;DHT22;7957;51.608;6.916;2022-08-05T15:03:53;26.50;1.00
15713;DHT22;7957;51.608;6.916;2022-08-05T15:06:22;26.50;1.00
15713;DHT22;7957;51.608;6.916;2022-08-05T15:08:48;26.60;1.00
15713;DHT22;7957;51.608;6.916;2022-08-05T15:11:16;26.70;1.00
15713;DHT22;7957;51.608;6.916;2022-08-05T15:13:43;26.70;1.00
15713;DHT22;7957;51.608;6.916;2022-08-05T15:16:09;26.80;1.00
15713;DHT22;7957;51.608;6.916;2022-08-05T15:18:36;26.80;1.00
15713;DHT22;7957;51.608;6.916;2022-08-05T15:21:03;26.80;1.00
15713;DHT22;7957;51.608;6.916;2022-08-05T15:23:32;26.80;1.00
15713;DHT22;7957;51.608;6.916;2022-08-05T15:25:58;26.70;1.00
15713;DHT22;7957;51.608;6.916;2022-08-05T15:28:25;26.70;1.00
15713;DHT22;7957;51.608;6.916;2022-08-05T15:30:52;26.70;1.00
15713;DHT22;7957;51.608;6.916;2022-08-05T15:33:19;26.70;1.00
15713;DHT22;7957;51.608;6.916;2022-08-05T15:35:46;26.70;1.00
15713;DHT22;7957;51.608;6.916;2022-08-05T15:38:12;26.60;1.00
15713;DHT22;7957;51.608;6.916;2022-08-05T15:40:41;26.50;1.00
15713;DHT22;7957;51.608;6.916;2022-08-05T15:43:07;26.50;1.00
15713;DHT22;7957;51.608;6.916;2022-08-05T15:45:34;26.40;1.00
15713;DHT22;7957;51.608;6.916;2022-08-05T15:48:02;26.40;1.00
15713;DHT22;7957;51.608;6.916;2022-08-05T15:50:29;26.40;1.00
15713;DHT22;7957;51.608;6.916;2022-08-05T15:52:56;26.40;1.00
15713;DHT22;7957;51.608;6.916;2022-08-05T15:55:22;26.40;1.00
15713;DHT22;7957;51.608;6.916;2022-08-05T15:57:51;26.40;1.00
15713;DHT22;7957;51.608;6.916;2022-08-05T16:00:19;26.40;1.00
15713;DHT22;7957;51.608;6.916;2022-08-05T16:02:45;26.40;1.00
15713;DHT22;7957;51.608;6.916;2022-08-05T16:05:12;26.40;1.00
15713;DHT22;7957;51.608;6.916;2022-08-05T16:07:39;26.30;1.00
15713;DHT22;7957;51.608;6.916;2022-08-05T16:10:07;26.30;1.00
15713;DHT22;7957;51.608;6.916;2022-08-05T16:12:34;26.20;1.00